sensor_id;sensor_type;location;lat;lon;timestamp;P1;durP1;ratioP1;P2;durP2;ratioP2
56593;SDS011;42474;51.660;5.824;2024-01-15T00:00:38;37.86;;;20.19;;
56593;SDS011;42474;51.660;5.824;2024-01-15T00:08:38;30.03;;;17.03;;
56593;SDS011;42474;51.660;5.824;2024-01-15T00:12:38;35.69;;;19.77;;
56593;SDS011;42474;51.660;5.824;2024-01-15T00:24:38;21.42;;;12.63;;
56593;SDS011;42474;51.660;5.824;2024-01-15T00:28:38;24.38;;;12.77;;
56593;SDS011;42474;51.660;5.824;2024-01-15T00:32:38;23.94;;;13.96;;
56593;SDS011;42474;51.660;5.824;2024-01-15T00:36:38;24.41;;;14.4;;
56593;SDS011;42474;51.660;5.824;2024-01-15T00:44:38;21.89;;;14.01;;
56593;SDS011;42474;51.660;5.824;2024-01-15T00:56:38;20.5;;;12.09;;
56593;SDS011;42474;51.660;5.824;2024-01-15T01:04:38;14.4;;;10.89;;
56593;SDS011;42474;51.660;5.824;2024-01-15T01:08:38;15.49;;;10.34;;
56593;SDS011;42474;51.660;5.824;2024-01-15T01:12:38;11.19;;;9.16;;
56593;SDS011;42474;51.660;5.824;2024-01-15T01:16:38;13.78;;;8.99;;
56593;SDS011;42474;51.660;5.824;2024-01-15T01:20:38;14.64;;;10.08;;
56593;SDS011;42474;51.660;5.824;2024-01-15T01:24:38;13.04;;;9.96;;
56593;SDS011;42474;51.660;5.824;2024-01-15T01:28:38;14.42;;;10.43;;
56593;SDS011;42474;51.660;5.824;2024-01-15T01:32:38;14.99;;;10.78;;
56593;SDS011;42474;51.660;5.824;2024-01-15T01:36:38;16.67;;;11.39;;
56593;SDS011;42474;51.660;5.824;2024-01-15T01:40:38;17.52;;;11.42;;
56593;SDS011;42474;51.660;5.824;2024-01-15T01:44:38;24.85;;;13.45;;
56593;SDS011;42474;51.660;5.824;2024-01-15T01:48:38;22.95;;;13.23;;
56593;SDS011;42474;51.660;5.824;2024-01-15T01:52:38;19.74;;;13.49;;
56593;SDS011;42474;51.660;5.824;2024-01-15T01:56:38;21.85;;;12.67;;
56593;SDS011;42474;51.660;5.824;2024-01-15T02:00:38;20.18;;;11.69;;
56593;SDS011;42474;51.660;5.824;2024-01-15T02:04:39;21.57;;;12.57;;
56593;SDS011;42474;51.660;5.824;2024-01-15T02:08:38;22.23;;;11.26;;
56593;SDS011;42474;51.660;5.824;2024-01-15T02:12:38;20.48;;;10.79;;
56593;SDS011;42474;51.660;5.824;2024-01-15T02:16:38;21.14;;;9.66;;
56593;SDS011;42474;51.660;5.824;2024-01-15T02:20:38;11.72;;;7.64;;
56593;SDS011;42474;51.660;5.824;2024-01-15T02:24:38;12.58;;;6.77;;
56593;SDS011;42474;51.660;5.824;2024-01-15T02:28:38;12.42;;;5.68;;
56593;SDS011;42474;51.660;5.824;2024-01-15T02:32:38;11.23;;;4.58;;
56593;SDS011;42474;51.660;5.824;2024-01-15T02:36:38;12.12;;;4.56;;
56593;SDS011;42474;51.660;5.824;2024-01-15T02:40:38;11.11;;;3.78;;
56593;SDS011;42474;51.660;5.824;2024-01-15T02:44:38;9.24;;;3.45;;
56593;SDS011;42474;51.660;5.824;2024-01-15T02:48:38;9.41;;;3.64;;
56593;SDS011;42474;51.660;5.824;2024-01-15T02:52:38;5.31;;;2.84;;
56593;SDS011;42474;51.660;5.824;2024-01-15T02:56:38;12.26;;;3.91;;
56593;SDS011;42474;51.660;5.824;2024-01-15T03:00:38;10.99;;;4.29;;
56593;SDS011;42474;51.660;5.824;2024-01-15T03:04:43;10.97;;;4.01;;
56593;SDS011;42474;51.660;5.824;2024-01-15T03:08:38;14.54;;;4.01;;
56593;SDS011;42474;51.660;5.824;2024-01-15T03:12:38;12.32;;;3.75;;
56593;SDS011;42474;51.660;5.824;2024-01-15T03:16:38;10.41;;;3.62;;
56593;SDS011;42474;51.660;5.824;2024-01-15T03:20:38;11.85;;;3.76;;
56593;SDS011;42474;51.660;5.824;2024-01-15T03:24:38;8.77;;;3.61;;
56593;SDS011;42474;51.660;5.824;2024-01-15T03:28:38;11.86;;;3.88;;
56593;SDS011;42474;51.660;5.824;2024-01-15T03:32:38;9.91;;;3.42;;
56593;SDS011;42474;51.660;5.824;2024-01-15T03:36:38;10.76;;;3.38;;
56593;SDS011;42474;51.660;5.824;2024-01-15T03:40:38;11.25;;;2.98;;
56593;SDS011;42474;51.660;5.824;2024-01-15T03:44:38;13.5;;;3.42;;
56593;SDS011;42474;51.660;5.824;2024-01-15T03:48:38;7.37;;;2.75;;
56593;SDS011;42474;51.660;5.824;2024-01-15T03:52:38;12.55;;;3.05;;
56593;SDS011;42474;51.660;5.824;2024-01-15T03:56:38;12.46;;;3.16;;
56593;SDS011;42474;51.660;5.824;2024-01-15T04:00:38;8.89;;;2.78;;
56593;SDS011;42474;51.660;5.824;2024-01-15T04:04:40;8.2;;;2.56;;
56593;SDS011;42474;51.660;5.824;2024-01-15T04:08:38;9.42;;;2.57;;
56593;SDS011;42474;51.660;5.824;2024-01-15T04:12:38;11.17;;;2.77;;
56593;SDS011;42474;51.660;5.824;2024-01-15T04:16:38;9.74;;;2.95;;
56593;SDS011;42474;51.660;5.824;2024-01-15T04:20:38;6.43;;;2.49;;
56593;SDS011;42474;51.660;5.824;2024-01-15T04:24:38;8.99;;;2.43;;
56593;SDS011;42474;51.660;5.824;2024-01-15T04:28:38;12.09;;;2.22;;
56593;SDS011;42474;51.660;5.824;2024-01-15T04:32:38;11.93;;;2.26;;
56593;SDS011;42474;51.660;5.824;2024-01-15T04:36:39;7.67;;;2.25;;
56593;SDS011;42474;51.660;5.824;2024-01-15T04:40:38;10.82;;;2.71;;
56593;SDS011;42474;51.660;5.824;2024-01-15T04:44:38;10.94;;;2.18;;
56593;SDS011;42474;51.660;5.824;2024-01-15T04:48:38;9.37;;;2.31;;
56593;SDS011;42474;51.660;5.824;2024-01-15T04:52:38;15.65;;;2.61;;
56593;SDS011;42474;51.660;5.824;2024-01-15T04:56:38;9.84;;;2.45;;
56593;SDS011;42474;51.660;5.824;2024-01-15T05:00:38;12.07;;;2.63;;
56593;SDS011;42474;51.660;5.824;2024-01-15T05:04:38;14.21;;;2.99;;
56593;SDS011;42474;51.660;5.824;2024-01-15T05:08:38;14.61;;;3.3;;
56593;SDS011;42474;51.660;5.824;2024-01-15T05:12:38;12.78;;;3.38;;
56593;SDS011;42474;51.660;5.824;2024-01-15T05:16:38;14.24;;;3.03;;
56593;SDS011;42474;51.660;5.824;2024-01-15T05:20:38;8.91;;;3.04;;
56593;SDS011;42474;51.660;5.824;2024-01-15T05:24:40;11.04;;;3.13;;
56593;SDS011;42474;51.660;5.824;2024-01-15T05:28:40;11.32;;;2.37;;
56593;SDS011;42474;51.660;5.824;2024-01-15T05:32:38;10.55;;;2.63;;
56593;SDS011;42474;51.660;5.824;2024-01-15T05:36:38;7.6;;;2.57;;
56593;SDS011;42474;51.660;5.824;2024-01-15T05:40:38;9.72;;;2.59;;
56593;SDS011;42474;51.660;5.824;2024-01-15T05:44:38;7.05;;;2.66;;
56593;SDS011;42474;51.660;5.824;2024-01-15T05:48:38;6.9;;;2.69;;
56593;SDS011;42474;51.660;5.824;2024-01-15T05:52:38;9.99;;;2.77;;
56593;SDS011;42474;51.660;5.824;2024-01-15T05:56:38;8.79;;;2.74;;
56593;SDS011;42474;51.660;5.824;2024-01-15T06:00:38;8.53;;;3.23;;
56593;SDS011;42474;51.660;5.824;2024-01-15T06:04:38;7.6;;;3.09;;
56593;SDS011;42474;51.660;5.824;2024-01-15T06:08:38;7.57;;;3.92;;
56593;SDS011;42474;51.660;5.824;2024-01-15T06:12:38;8.83;;;3.29;;
56593;SDS011;42474;51.660;5.824;2024-01-15T06:16:38;8.5;;;3.25;;
56593;SDS011;42474;51.660;5.824;2024-01-15T06:20:39;5.24;;;2.46;;
56593;SDS011;42474;51.660;5.824;2024-01-15T06:24:38;7.96;;;3.33;;
56593;SDS011;42474;51.660;5.824;2024-01-15T06:28:38;6.63;;;3.3;;
56593;SDS011;42474;51.660;5.824;2024-01-15T06:32:38;6.72;;;4.13;;
56593;SDS011;42474;51.660;5.824;2024-01-15T06:36:38;9.63;;;4.62;;
56593;SDS011;42474;51.660;5.824;2024-01-15T06:40:38;7.09;;;4.37;;
56593;SDS011;42474;51.660;5.824;2024-01-15T06:44:38;6.98;;;4.24;;
56593;SDS011;42474;51.660;5.824;2024-01-15T06:48:38;8.19;;;4.09;;
56593;SDS011;42474;51.660;5.824;2024-01-15T06:52:38;7.22;;;4.25;;
56593;SDS011;42474;51.660;5.824;2024-01-15T06:56:38;5.95;;;3.36;;
56593;SDS011;42474;51.660;5.824;2024-01-15T07:00:38;7.89;;;3.88;;
56593;SDS011;42474;51.660;5.824;2024-01-15T07:04:38;6.16;;;3.63;;
56593;SDS011;42474;51.660;5.824;2024-01-15T07:08:39;6.31;;;4.08;;
56593;SDS011;42474;51.660;5.824;2024-01-15T07:12:38;6.72;;;4.6;;
56593;SDS011;42474;51.660;5.824;2024-01-15T07:16:38;8.34;;;5.08;;
56593;SDS011;42474;51.660;5.824;2024-01-15T07:20:38;8.31;;;6.18;;
56593;SDS011;42474;51.660;5.824;2024-01-15T07:24:38;10.66;;;7.5;;
56593;SDS011;42474;51.660;5.824;2024-01-15T07:28:38;10.21;;;7.46;;
56593;SDS011;42474;51.660;5.824;2024-01-15T07:32:38;8.81;;;6.2;;
56593;SDS011;42474;51.660;5.824;2024-01-15T07:36:38;14.61;;;8.13;;
56593;SDS011;42474;51.660;5.824;2024-01-15T07:40:38;14.26;;;8.09;;
56593;SDS011;42474;51.660;5.824;2024-01-15T07:44:38;14.99;;;8.94;;
56593;SDS011;42474;51.660;5.824;2024-01-15T07:48:38;11.56;;;8.39;;
56593;SDS011;42474;51.660;5.824;2024-01-15T07:52:39;10.14;;;8;;
56593;SDS011;42474;51.660;5.824;2024-01-15T07:56:53;9.99;;;8.29;;
56593;SDS011;42474;51.660;5.824;2024-01-15T08:00:38;10.1;;;8.01;;
56593;SDS011;42474;51.660;5.824;2024-01-15T08:04:38;10.28;;;8.16;;
56593;SDS011;42474;51.660;5.824;2024-01-15T08:08:38;11.25;;;8.48;;
56593;SDS011;42474;51.660;5.824;2024-01-15T08:12:38;11.14;;;7.26;;
56593;SDS011;42474;51.660;5.824;2024-01-15T08:16:39;9.87;;;6.98;;
56593;SDS011;42474;51.660;5.824;2024-01-15T08:20:38;8.35;;;6.74;;
56593;SDS011;42474;51.660;5.824;2024-01-15T08:24:38;7.59;;;6.17;;
56593;SDS011;42474;51.660;5.824;2024-01-15T08:28:38;8.29;;;5.91;;
56593;SDS011;42474;51.660;5.824;2024-01-15T08:32:38;8.44;;;5.5;;
56593;SDS011;42474;51.660;5.824;2024-01-15T08:36:38;9.57;;;6.68;;
56593;SDS011;42474;51.660;5.824;2024-01-15T08:40:38;7.88;;;6.13;;
56593;SDS011;42474;51.660;5.824;2024-01-15T08:44:38;11.1;;;5.79;;
56593;SDS011;42474;51.660;5.824;2024-01-15T08:48:38;7.75;;;5.48;;
56593;SDS011;42474;51.660;5.824;2024-01-15T08:52:38;10.2;;;6.06;;
56593;SDS011;42474;51.660;5.824;2024-01-15T08:56:38;7.77;;;4.91;;
56593;SDS011;42474;51.660;5.824;2024-01-15T09:00:38;8.25;;;5.51;;
56593;SDS011;42474;51.660;5.824;2024-01-15T09:04:38;7.14;;;4.36;;
56593;SDS011;42474;51.660;5.824;2024-01-15T09:08:38;4.79;;;3.99;;
56593;SDS011;42474;51.660;5.824;2024-01-15T09:12:38;4.98;;;3.4;;
56593;SDS011;42474;51.660;5.824;2024-01-15T09:16:38;6.18;;;3.04;;
56593;SDS011;42474;51.660;5.824;2024-01-15T09:20:38;4.11;;;2.24;;
56593;SDS011;42474;51.660;5.824;2024-01-15T09:24:40;3.94;;;2.58;;
56593;SDS011;42474;51.660;5.824;2024-01-15T09:28:38;5.91;;;4.88;;
56593;SDS011;42474;51.660;5.824;2024-01-15T09:32:38;12.37;;;10.54;;
56593;SDS011;42474;51.660;5.824;2024-01-15T09:36:39;5.62;;;4.64;;
56593;SDS011;42474;51.660;5.824;2024-01-15T09:40:38;5.94;;;5.12;;
56593;SDS011;42474;51.660;5.824;2024-01-15T09:44:38;11;;;5.74;;
56593;SDS011;42474;51.660;5.824;2024-01-15T09:48:38;14.9;;;7.39;;
56593;SDS011;42474;51.660;5.824;2024-01-15T09:52:39;14;;;8.63;;
56593;SDS011;42474;51.660;5.824;2024-01-15T09:56:39;6.94;;;6.19;;
56593;SDS011;42474;51.660;5.824;2024-01-15T10:00:39;9.45;;;8.54;;
56593;SDS011;42474;51.660;5.824;2024-01-15T10:04:38;10.09;;;8.77;;
56593;SDS011;42474;51.660;5.824;2024-01-15T10:08:38;11.37;;;10.25;;
56593;SDS011;42474;51.660;5.824;2024-01-15T10:12:39;11.78;;;9.75;;
56593;SDS011;42474;51.660;5.824;2024-01-15T10:16:38;13.15;;;10.53;;
56593;SDS011;42474;51.660;5.824;2024-01-15T10:20:39;13.18;;;10.98;;
56593;SDS011;42474;51.660;5.824;2024-01-15T10:24:40;13.16;;;9.73;;
56593;SDS011;42474;51.660;5.824;2024-01-15T10:32:38;10.48;;;6.66;;
56593;SDS011;42474;51.660;5.824;2024-01-15T10:36:39;10.55;;;6.12;;
56593;SDS011;42474;51.660;5.824;2024-01-15T10:40:38;9.12;;;4.93;;
56593;SDS011;42474;51.660;5.824;2024-01-15T10:44:38;7.79;;;3.49;;
56593;SDS011;42474;51.660;5.824;2024-01-15T10:48:39;10.9;;;2.96;;
56593;SDS011;42474;51.660;5.824;2024-01-15T10:52:40;7.22;;;2.63;;
56593;SDS011;42474;51.660;5.824;2024-01-15T10:56:39;8.25;;;2.27;;
56593;SDS011;42474;51.660;5.824;2024-01-15T11:00:38;7.2;;;2.52;;
56593;SDS011;42474;51.660;5.824;2024-01-15T11:04:38;4.72;;;2.13;;
56593;SDS011;42474;51.660;5.824;2024-01-15T11:08:38;10.27;;;2.6;;
56593;SDS011;42474;51.660;5.824;2024-01-15T11:12:41;5.97;;;2.48;;
56593;SDS011;42474;51.660;5.824;2024-01-15T11:16:54;4.89;;;1.98;;
56593;SDS011;42474;51.660;5.824;2024-01-15T11:20:38;6.34;;;1.92;;
56593;SDS011;42474;51.660;5.824;2024-01-15T11:24:39;5.45;;;1.69;;
56593;SDS011;42474;51.660;5.824;2024-01-15T11:28:47;8.38;;;1.67;;
56593;SDS011;42474;51.660;5.824;2024-01-15T11:32:39;6;;;1.67;;
56593;SDS011;42474;51.660;5.824;2024-01-15T11:37:02;2.72;;;1.53;;
56593;SDS011;42474;51.660;5.824;2024-01-15T11:40:39;3.56;;;2.31;;
56593;SDS011;42474;51.660;5.824;2024-01-15T11:44:39;4.94;;;2.61;;
56593;SDS011;42474;51.660;5.824;2024-01-15T11:48:43;4.8;;;2.38;;
56593;SDS011;42474;51.660;5.824;2024-01-15T11:52:38;4.72;;;2.83;;
56593;SDS011;42474;51.660;5.824;2024-01-15T11:56:38;6.5;;;2.93;;
56593;SDS011;42474;51.660;5.824;2024-01-15T12:00:40;7.35;;;3.33;;
56593;SDS011;42474;51.660;5.824;2024-01-15T12:04:38;8.16;;;3.43;;
56593;SDS011;42474;51.660;5.824;2024-01-15T12:08:38;4.37;;;3.06;;
56593;SDS011;42474;51.660;5.824;2024-01-15T12:12:47;6.47;;;3.38;;
56593;SDS011;42474;51.660;5.824;2024-01-15T12:16:38;8.39;;;3.8;;
56593;SDS011;42474;51.660;5.824;2024-01-15T12:20:40;9.54;;;3.83;;
56593;SDS011;42474;51.660;5.824;2024-01-15T12:24:38;5.15;;;2.94;;
56593;SDS011;42474;51.660;5.824;2024-01-15T12:28:38;5.6;;;2.46;;
56593;SDS011;42474;51.660;5.824;2024-01-15T12:32:40;4.26;;;2.22;;
56593;SDS011;42474;51.660;5.824;2024-01-15T12:36:40;4.8;;;2.03;;
56593;SDS011;42474;51.660;5.824;2024-01-15T12:40:39;6.44;;;2.32;;
56593;SDS011;42474;51.660;5.824;2024-01-15T12:44:39;4.21;;;1.84;;
56593;SDS011;42474;51.660;5.824;2024-01-15T12:48:39;5;;;1.78;;
56593;SDS011;42474;51.660;5.824;2024-01-15T12:52:40;4.23;;;1.82;;
56593;SDS011;42474;51.660;5.824;2024-01-15T12:56:38;3.51;;;1.22;;
56593;SDS011;42474;51.660;5.824;2024-01-15T13:00:38;5.07;;;1.42;;
56593;SDS011;42474;51.660;5.824;2024-01-15T13:04:39;4.76;;;1.55;;
56593;SDS011;42474;51.660;5.824;2024-01-15T13:08:38;2.72;;;1.19;;
56593;SDS011;42474;51.660;5.824;2024-01-15T13:12:39;3.11;;;1.28;;
56593;SDS011;42474;51.660;5.824;2024-01-15T13:16:48;2.96;;;1.27;;
56593;SDS011;42474;51.660;5.824;2024-01-15T13:20:48;3.14;;;1.94;;
56593;SDS011;42474;51.660;5.824;2024-01-15T13:24:48;3.56;;;1.88;;
56593;SDS011;42474;51.660;5.824;2024-01-15T13:28:38;4.64;;;2.49;;
56593;SDS011;42474;51.660;5.824;2024-01-15T13:32:38;4.13;;;2.5;;
56593;SDS011;42474;51.660;5.824;2024-01-15T13:36:38;4.91;;;2.63;;
56593;SDS011;42474;51.660;5.824;2024-01-15T13:40:38;4.34;;;2.58;;
56593;SDS011;42474;51.660;5.824;2024-01-15T13:44:38;8.76;;;2.66;;
56593;SDS011;42474;51.660;5.824;2024-01-15T13:48:38;4.79;;;2.12;;
56593;SDS011;42474;51.660;5.824;2024-01-15T13:52:38;3.75;;;2.03;;
56593;SDS011;42474;51.660;5.824;2024-01-15T13:56:38;5.13;;;1.82;;
56593;SDS011;42474;51.660;5.824;2024-01-15T14:00:38;4.02;;;2.26;;
56593;SDS011;42474;51.660;5.824;2024-01-15T14:04:38;4.25;;;2.09;;
56593;SDS011;42474;51.660;5.824;2024-01-15T14:08:38;3.16;;;1.74;;
56593;SDS011;42474;51.660;5.824;2024-01-15T14:12:38;3.58;;;1.5;;
56593;SDS011;42474;51.660;5.824;2024-01-15T14:16:38;3.59;;;1.23;;
56593;SDS011;42474;51.660;5.824;2024-01-15T14:20:38;3.3;;;1.01;;
56593;SDS011;42474;51.660;5.824;2024-01-15T14:24:38;4.76;;;1.52;;
56593;SDS011;42474;51.660;5.824;2024-01-15T14:28:39;7.13;;;3.03;;
56593;SDS011;42474;51.660;5.824;2024-01-15T14:32:38;6.49;;;2.83;;
56593;SDS011;42474;51.660;5.824;2024-01-15T14:36:38;6.51;;;2.78;;
56593;SDS011;42474;51.660;5.824;2024-01-15T14:40:38;6.7;;;2.39;;
56593;SDS011;42474;51.660;5.824;2024-01-15T14:44:38;4.55;;;2.3;;
56593;SDS011;42474;51.660;5.824;2024-01-15T14:48:38;6.73;;;3.67;;
56593;SDS011;42474;51.660;5.824;2024-01-15T14:52:39;9.76;;;3.65;;
56593;SDS011;42474;51.660;5.824;2024-01-15T14:56:38;7.43;;;3.44;;
56593;SDS011;42474;51.660;5.824;2024-01-15T15:00:39;11.26;;;3.17;;
56593;SDS011;42474;51.660;5.824;2024-01-15T15:04:38;6.99;;;3;;
56593;SDS011;42474;51.660;5.824;2024-01-15T15:08:38;6.56;;;2.77;;
56593;SDS011;42474;51.660;5.824;2024-01-15T15:12:38;5.99;;;2.62;;
56593;SDS011;42474;51.660;5.824;2024-01-15T15:16:38;10.97;;;3.33;;
56593;SDS011;42474;51.660;5.824;2024-01-15T15:20:38;7.49;;;2.7;;
56593;SDS011;42474;51.660;5.824;2024-01-15T15:24:38;8.26;;;2.8;;
56593;SDS011;42474;51.660;5.824;2024-01-15T15:28:39;9.77;;;2.69;;
56593;SDS011;42474;51.660;5.824;2024-01-15T15:32:38;9;;;2.77;;
56593;SDS011;42474;51.660;5.824;2024-01-15T15:36:39;9.83;;;3.13;;
56593;SDS011;42474;51.660;5.824;2024-01-15T15:40:38;10.48;;;3.21;;
56593;SDS011;42474;51.660;5.824;2024-01-15T15:44:39;10.27;;;3.51;;
56593;SDS011;42474;51.660;5.824;2024-01-15T15:48:38;13.85;;;5.13;;
56593;SDS011;42474;51.660;5.824;2024-01-15T15:52:38;13.35;;;6.82;;
56593;SDS011;42474;51.660;5.824;2024-01-15T15:56:38;9.53;;;3.99;;
56593;SDS011;42474;51.660;5.824;2024-01-15T16:00:38;12.96;;;4.23;;
56593;SDS011;42474;51.660;5.824;2024-01-15T16:04:38;12.66;;;4.68;;
56593;SDS011;42474;51.660;5.824;2024-01-15T16:08:38;12.49;;;3.48;;
56593;SDS011;42474;51.660;5.824;2024-01-15T16:12:39;11.85;;;3.35;;
56593;SDS011;42474;51.660;5.824;2024-01-15T16:16:38;13.04;;;4.41;;
56593;SDS011;42474;51.660;5.824;2024-01-15T16:20:38;13.6;;;4.45;;
56593;SDS011;42474;51.660;5.824;2024-01-15T16:24:38;16.32;;;4.37;;
56593;SDS011;42474;51.660;5.824;2024-01-15T16:28:39;14.03;;;3.12;;
56593;SDS011;42474;51.660;5.824;2024-01-15T16:32:38;9.78;;;2.37;;
56593;SDS011;42474;51.660;5.824;2024-01-15T16:36:39;7.72;;;2.47;;
56593;SDS011;42474;51.660;5.824;2024-01-15T16:40:39;12.74;;;2.95;;
56593;SDS011;42474;51.660;5.824;2024-01-15T16:44:39;12.44;;;4.11;;
56593;SDS011;42474;51.660;5.824;2024-01-15T16:48:38;14.39;;;3.52;;
56593;SDS011;42474;51.660;5.824;2024-01-15T16:52:38;10.7;;;2.83;;
56593;SDS011;42474;51.660;5.824;2024-01-15T16:56:38;11.66;;;3.31;;
56593;SDS011;42474;51.660;5.824;2024-01-15T17:00:39;13.94;;;2.45;;
56593;SDS011;42474;51.660;5.824;2024-01-15T17:04:39;9.98;;;2.44;;
56593;SDS011;42474;51.660;5.824;2024-01-15T17:08:39;18.07;;;3.46;;
56593;SDS011;42474;51.660;5.824;2024-01-15T17:12:39;13.36;;;3.3;;
56593;SDS011;42474;51.660;5.824;2024-01-15T17:16:39;13.43;;;2.91;;
56593;SDS011;42474;51.660;5.824;2024-01-15T17:20:39;13.37;;;3.06;;
56593;SDS011;42474;51.660;5.824;2024-01-15T17:24:39;10.06;;;3.1;;
56593;SDS011;42474;51.660;5.824;2024-01-15T17:28:39;12.78;;;3.4;;
56593;SDS011;42474;51.660;5.824;2024-01-15T17:32:39;13.62;;;3.41;;
56593;SDS011;42474;51.660;5.824;2024-01-15T17:36:38;14.88;;;3.43;;
56593;SDS011;42474;51.660;5.824;2024-01-15T17:40:39;15.25;;;3.67;;
56593;SDS011;42474;51.660;5.824;2024-01-15T17:44:39;16.12;;;3.08;;
56593;SDS011;42474;51.660;5.824;2024-01-15T17:48:39;15.05;;;3.28;;
56593;SDS011;42474;51.660;5.824;2024-01-15T17:52:39;13.93;;;3.16;;
56593;SDS011;42474;51.660;5.824;2024-01-15T17:56:39;10.52;;;2.61;;
56593;SDS011;42474;51.660;5.824;2024-01-15T18:00:39;12.27;;;3.76;;
56593;SDS011;42474;51.660;5.824;2024-01-15T18:04:39;13.05;;;3.39;;
56593;SDS011;42474;51.660;5.824;2024-01-15T18:08:39;15.91;;;3.37;;
56593;SDS011;42474;51.660;5.824;2024-01-15T18:12:39;15.08;;;5.87;;
56593;SDS011;42474;51.660;5.824;2024-01-15T18:16:39;11.83;;;2.86;;
56593;SDS011;42474;51.660;5.824;2024-01-15T18:20:39;11.19;;;3.11;;
56593;SDS011;42474;51.660;5.824;2024-01-15T18:24:39;8.42;;;2.36;;
56593;SDS011;42474;51.660;5.824;2024-01-15T18:28:39;13.23;;;3.03;;
56593;SDS011;42474;51.660;5.824;2024-01-15T18:32:39;12.73;;;2.74;;
56593;SDS011;42474;51.660;5.824;2024-01-15T18:36:39;11.29;;;2.34;;
56593;SDS011;42474;51.660;5.824;2024-01-15T18:40:39;9.37;;;2.46;;
56593;SDS011;42474;51.660;5.824;2024-01-15T18:44:43;12.21;;;2.74;;
56593;SDS011;42474;51.660;5.824;2024-01-15T18:48:39;10.63;;;2.75;;
56593;SDS011;42474;51.660;5.824;2024-01-15T18:52:39;15.03;;;3.3;;
56593;SDS011;42474;51.660;5.824;2024-01-15T18:56:40;8.33;;;2.98;;
56593;SDS011;42474;51.660;5.824;2024-01-15T19:00:39;14.42;;;3.69;;
56593;SDS011;42474;51.660;5.824;2024-01-15T19:04:39;12.96;;;3.32;;
56593;SDS011;42474;51.660;5.824;2024-01-15T19:08:39;14.78;;;3.13;;
56593;SDS011;42474;51.660;5.824;2024-01-15T19:12:39;11.03;;;3.22;;
56593;SDS011;42474;51.660;5.824;2024-01-15T19:16:39;11.67;;;2.84;;
56593;SDS011;42474;51.660;5.824;2024-01-15T19:20:39;10.93;;;3.26;;
56593;SDS011;42474;51.660;5.824;2024-01-15T19:24:39;12.84;;;3.47;;
56593;SDS011;42474;51.660;5.824;2024-01-15T19:28:39;12;;;4.2;;
56593;SDS011;42474;51.660;5.824;2024-01-15T19:32:39;10.19;;;4.13;;
56593;SDS011;42474;51.660;5.824;2024-01-15T19:36:39;9.5;;;3.55;;
56593;SDS011;42474;51.660;5.824;2024-01-15T19:40:39;6.99;;;3.38;;
56593;SDS011;42474;51.660;5.824;2024-01-15T19:44:39;9.81;;;3.93;;
56593;SDS011;42474;51.660;5.824;2024-01-15T19:48:39;11.05;;;4.14;;
56593;SDS011;42474;51.660;5.824;2024-01-15T19:52:39;10.42;;;5.44;;
56593;SDS011;42474;51.660;5.824;2024-01-15T19:56:39;13.87;;;5.77;;
56593;SDS011;42474;51.660;5.824;2024-01-15T20:00:39;15.57;;;6.95;;
56593;SDS011;42474;51.660;5.824;2024-01-15T20:04:39;14.81;;;5.39;;
56593;SDS011;42474;51.660;5.824;2024-01-15T20:08:39;13.03;;;5.75;;
56593;SDS011;42474;51.660;5.824;2024-01-15T20:12:39;11.81;;;5.83;;
56593;SDS011;42474;51.660;5.824;2024-01-15T20:16:39;16.29;;;5.75;;
56593;SDS011;42474;51.660;5.824;2024-01-15T20:20:39;12.13;;;5.01;;
56593;SDS011;42474;51.660;5.824;2024-01-15T20:24:39;14.95;;;5.23;;
56593;SDS011;42474;51.660;5.824;2024-01-15T20:28:39;10.64;;;4.78;;
56593;SDS011;42474;51.660;5.824;2024-01-15T20:32:39;12.13;;;4.27;;
56593;SDS011;42474;51.660;5.824;2024-01-15T20:36:39;13.15;;;4.23;;
56593;SDS011;42474;51.660;5.824;2024-01-15T20:44:39;12.34;;;4.42;;
56593;SDS011;42474;51.660;5.824;2024-01-15T20:48:39;11.27;;;4.63;;
56593;SDS011;42474;51.660;5.824;2024-01-15T20:52:39;10.93;;;5.48;;
56593;SDS011;42474;51.660;5.824;2024-01-15T20:56:39;17.46;;;6.38;;
56593;SDS011;42474;51.660;5.824;2024-01-15T21:00:39;14.14;;;6.17;;
56593;SDS011;42474;51.660;5.824;2024-01-15T21:04:39;16.65;;;7.11;;
56593;SDS011;42474;51.660;5.824;2024-01-15T21:08:39;13;;;7.18;;
56593;SDS011;42474;51.660;5.824;2024-01-15T21:12:39;14.99;;;7.61;;
56593;SDS011;42474;51.660;5.824;2024-01-15T21:16:39;17.72;;;9.57;;
56593;SDS011;42474;51.660;5.824;2024-01-15T21:20:39;14.33;;;9.81;;
56593;SDS011;42474;51.660;5.824;2024-01-15T21:24:39;19.92;;;10.83;;
56593;SDS011;42474;51.660;5.824;2024-01-15T21:28:39;19.67;;;11.53;;
56593;SDS011;42474;51.660;5.824;2024-01-15T21:32:39;19.64;;;12.42;;
56593;SDS011;42474;51.660;5.824;2024-01-15T21:36:39;22.66;;;11.98;;
56593;SDS011;42474;51.660;5.824;2024-01-15T21:40:39;25.35;;;13.46;;
56593;SDS011;42474;51.660;5.824;2024-01-15T21:44:39;21.07;;;12.11;;
56593;SDS011;42474;51.660;5.824;2024-01-15T21:48:39;21.45;;;11.96;;
56593;SDS011;42474;51.660;5.824;2024-01-15T21:52:39;19.16;;;12.21;;
56593;SDS011;42474;51.660;5.824;2024-01-15T21:56:39;18.09;;;11.47;;
56593;SDS011;42474;51.660;5.824;2024-01-15T22:00:39;17.78;;;10.47;;
56593;SDS011;42474;51.660;5.824;2024-01-15T22:04:40;20.75;;;11.17;;
56593;SDS011;42474;51.660;5.824;2024-01-15T22:08:39;21.99;;;10.6;;
56593;SDS011;42474;51.660;5.824;2024-01-15T22:12:39;21.64;;;10.75;;
56593;SDS011;42474;51.660;5.824;2024-01-15T22:16:39;19.21;;;10.78;;
56593;SDS011;42474;51.660;5.824;2024-01-15T22:20:39;18.98;;;10.93;;
56593;SDS011;42474;51.660;5.824;2024-01-15T22:24:39;16.65;;;9.26;;
56593;SDS011;42474;51.660;5.824;2024-01-15T22:28:39;18.61;;;9.69;;
56593;SDS011;42474;51.660;5.824;2024-01-15T22:32:39;14.73;;;9.08;;
56593;SDS011;42474;51.660;5.824;2024-01-15T22:36:39;16.48;;;9.35;;
56593;SDS011;42474;51.660;5.824;2024-01-15T22:40:39;15.61;;;9.18;;
56593;SDS011;42474;51.660;5.824;2024-01-15T22:44:39;17.09;;;9.14;;
56593;SDS011;42474;51.660;5.824;2024-01-15T22:48:39;14.38;;;9.01;;
56593;SDS011;42474;51.660;5.824;2024-01-15T22:52:39;13.61;;;8.26;;
56593;SDS011;42474;51.660;5.824;2024-01-15T22:56:39;15.43;;;9.1;;
56593;SDS011;42474;51.660;5.824;2024-01-15T23:00:39;12.97;;;8.03;;
56593;SDS011;42474;51.660;5.824;2024-01-15T23:04:39;12.69;;;7.91;;
56593;SDS011;42474;51.660;5.824;2024-01-15T23:08:39;14.17;;;8.63;;
56593;SDS011;42474;51.660;5.824;2024-01-15T23:12:39;15.85;;;8.68;;
56593;SDS011;42474;51.660;5.824;2024-01-15T23:16:39;15.87;;;8.9;;
56593;SDS011;42474;51.660;5.824;2024-01-15T23:20:39;14.63;;;8.92;;
56593;SDS011;42474;51.660;5.824;2024-01-15T23:24:39;17.65;;;10.93;;
56593;SDS011;42474;51.660;5.824;2024-01-15T23:28:39;20.79;;;12.72;;
56593;SDS011;42474;51.660;5.824;2024-01-15T23:32:39;22.2;;;13.16;;
56593;SDS011;42474;51.660;5.824;2024-01-15T23:36:41;20.04;;;11.9;;
56593;SDS011;42474;51.660;5.824;2024-01-15T23:40:39;21.72;;;11.56;;
56593;SDS011;42474;51.660;5.824;2024-01-15T23:44:39;21.45;;;13.23;;
56593;SDS011;42474;51.660;5.824;2024-01-15T23:48:39;17.07;;;11.39;;
56593;SDS011;42474;51.660;5.824;2024-01-15T23:52:39;21.36;;;12.07;;
56593;SDS011;42474;51.660;5.824;2024-01-15T23:56:39;21.02;;;11.28;;
